Time;durP1;ratioP1;P1;durP2;ratioP2;P2;SDS_P1;SDS_P2;PMS_P1;PMS_P2;Temp;Humidity;BMP_temperature;BMP_pressure;BME280_temperature;BME280_humidity;BME280_pressure;Samples;Min_cycle;Max_cycle;Signal;HPM_P1;HPM_P2
2023/05/05 00:01:07;;;;;;;2.58;2.38;;;14.80;72.30;;;;;;4930330;29;20374;-59
2023/05/05 00:03:34;;;;;;;2.70;2.17;;;14.80;72.40;;;;;;4919415;29;20028;-57
2023/05/05 00:06:00;;;;;;;3.90;2.60;;;14.80;72.40;;;;;;4916205;29;20501;-58
2023/05/05 00:08:25;;;;;;;4.38;2.45;;;14.70;72.40;;;;;;4918653;29;20036;-58
2023/05/05 00:10:52;;;;;;;2.85;2.55;;;14.70;72.50;;;;;;4930073;29;20065;-57
2023/05/05 00:13:19;;;;;;;2.90;2.47;;;14.70;72.60;;;;;;4930991;29;20098;-57
2023/05/05 00:15:47;;;;;;;2.97;2.40;;;14.70;72.60;;;;;;4928841;29;20027;-56
2023/05/05 00:18:15;;;;;;;2.20;2.00;;;14.60;72.70;;;;;;4918616;29;20036;-56
2023/05/05 00:20:42;;;;;;;2.45;2.17;;;14.60;72.90;;;;;;4922328;29;20059;-57
2023/05/05 00:23:08;;;;;;;2.85;2.13;;;14.60;73.00;;;;;;4929750;29;20146;-57
2023/05/05 00:25:34;;;;;;;2.55;2.35;;;14.50;73.10;;;;;;4931352;29;20131;-54
2023/05/05 00:28:00;;;;;;;2.50;2.30;;;14.50;73.20;;;;;;4927098;29;20028;-56
2023/05/05 00:30:26;;;;;;;2.17;2.00;;;14.50;73.50;;;;;;4926733;29;20040;-56
2023/05/05 00:32:53;;;;;;;3.15;2.40;;;14.50;73.60;;;;;;4924048;29;20038;-56
2023/05/05 00:35:19;;;;;;;2.70;2.45;;;14.50;73.80;;;;;;4933329;29;20042;-59
2023/05/05 00:37:44;;;;;;;2.90;2.45;;;14.40;73.90;;;;;;4930397;29;20028;-57
2023/05/05 00:40:11;;;;;;;3.38;2.40;;;14.40;74.00;;;;;;4919818;29;20051;-60
2023/05/05 00:42:49;;;;;;;2.85;2.38;;;14.30;74.10;;;;;;4934177;29;20547;-60
2023/05/05 00:45:15;;;;;;;3.33;2.50;;;14.30;74.40;;;;;;4933762;29;20032;-60
2023/05/05 00:47:44;;;;;;;3.08;2.50;;;14.30;74.60;;;;;;4934567;29;20031;-59
2023/05/05 00:50:14;;;;;;;3.20;2.20;;;14.20;74.60;;;;;;4934639;29;20439;-60
2023/05/05 00:52:40;;;;;;;3.03;2.45;;;14.20;74.70;;;;;;4926422;29;20028;-59
2023/05/05 00:55:06;;;;;;;2.47;2.28;;;14.20;75.10;;;;;;4930710;29;20113;-59
2023/05/05 00:57:34;;;;;;;3.03;2.22;;;14.10;75.20;;;;;;4931488;29;20035;-60
2023/05/05 01:00:01;;;;;;;3.90;2.60;;;14.10;75.30;;;;;;4935058;29;20051;-52
2023/05/05 01:02:27;;;;;;;3.75;2.55;;;14.10;75.50;;;;;;4921956;29;20155;-51
2023/05/05 01:04:54;;;;;;;3.47;2.90;;;14.00;75.60;;;;;;4934631;29;20143;-53
2023/05/05 01:07:21;;;;;;;3.00;2.60;;;14.00;75.80;;;;;;4918860;29;20024;-53
2023/05/05 01:10:11;;;;;;;3.15;2.58;;;14.00;75.90;;;;;;4930281;29;20474;-51
2023/05/05 01:13:01;;;;;;;3.53;2.38;;;14.00;76.40;;;;;;4924707;29;20394;-53
2023/05/05 01:15:32;;;;;;;3.03;2.38;;;14.00;75.90;;;;;;4921177;29;20031;-58
2023/05/05 01:18:24;;;;;;;3.85;2.60;;;14.00;75.80;;;;;;4924929;29;20036;-58
2023/05/05 01:20:58;;;;;;;;;;;14.00;75.80;;;;;;4926004;29;20048;-57
2023/05/05 01:24:00;;;;;;;2.58;2.38;;;14.00;77.70;;;;;;4932231;29;19907;-58
2023/05/05 01:26:44;;;;;;;;;;;14.00;76.20;;;;;;4933213;29;20027;-57
2023/05/05 01:29:47;;;;;;;2.63;2.42;;;13.90;77.30;;;;;;4934708;29;20341;-60
2023/05/05 01:32:15;;;;;;;3.35;2.42;;;13.90;75.90;;;;;;4926031;29;20036;-59
2023/05/05 01:34:50;;;;;;;2.83;2.58;;;13.90;75.70;;;;;;4928569;29;20295;-59
2023/05/05 01:37:24;;;;;;;2.63;2.42;;;13.90;75.90;;;;;;4931659;29;20102;-59
2023/05/05 01:39:54;;;;;;;2.35;2.15;;;13.90;76.00;;;;;;4931459;29;20454;-54
2023/05/05 01:42:21;;;;;;;3.67;2.35;;;13.80;76.20;;;;;;4927512;29;20035;-53
2023/05/05 01:44:48;;;;;;;3.30;2.42;;;13.80;76.30;;;;;;4927977;29;20036;-54
2023/05/05 01:47:17;;;;;;;2.42;2.08;;;13.80;76.40;;;;;;4919113;29;20028;-49
2023/05/05 01:49:45;;;;;;;3.30;2.55;;;13.80;76.40;;;;;;4924467;29;20062;-58
2023/05/05 01:52:13;;;;;;;2.88;2.58;;;13.80;76.50;;;;;;4919300;29;20047;-59
2023/05/05 01:54:41;;;;;;;3.00;2.50;;;13.80;76.60;;;;;;4931872;29;20521;-60
2023/05/05 01:57:08;;;;;;;2.55;2.35;;;13.80;76.70;;;;;;4930415;29;20027;-59
2023/05/05 01:59:35;;;;;;;2.50;2.30;;;13.80;76.70;;;;;;4934897;29;20046;-60
2023/05/05 02:02:02;;;;;;;2.50;2.30;;;13.70;76.90;;;;;;4929967;29;20102;-61
2023/05/05 02:04:30;;;;;;;2.88;2.58;;;13.70;77.10;;;;;;4925306;29;20115;-60
2023/05/05 02:06:58;;;;;;;3.50;2.40;;;13.70;77.20;;;;;;4933282;29;20042;-60
2023/05/05 02:09:25;;;;;;;2.90;2.58;;;13.70;77.20;;;;;;4934533;29;20067;-57
2023/05/05 02:11:52;;;;;;;2.67;2.42;;;13.70;77.20;;;;;;4928199;29;20525;-58
2023/05/05 02:14:19;;;;;;;3.08;2.50;;;13.70;77.40;;;;;;4924114;29;20036;-58
2023/05/05 02:16:46;;;;;;;2.45;2.20;;;13.70;77.30;;;;;;4930287;29;20043;-57
2023/05/05 02:19:13;;;;;;;3.80;3.00;;;13.70;77.30;;;;;;4930862;29;20048;-57
2023/05/05 02:21:40;;;;;;;3.17;2.25;;;13.70;77.30;;;;;;4926711;29;20043;-56
2023/05/05 02:24:06;;;;;;;3.15;2.47;;;13.70;77.30;;;;;;4930282;29;20051;-59
2023/05/05 02:26:37;;;;;;;2.53;2.17;;;13.70;77.30;;;;;;4934283;29;20821;-58
2023/05/05 02:29:17;;;;;;;2.30;2.10;;;13.60;77.80;;;;;;4933246;29;20032;-57
2023/05/05 02:31:49;;;;;;;2.88;2.40;;;13.60;77.20;;;;;;4929841;29;20043;-58
2023/05/05 02:34:24;;;;;;;3.20;2.45;;;13.60;77.20;;;;;;4930928;29;20050;-58
2023/05/05 02:36:53;;;;;;;3.17;2.35;;;13.60;77.20;;;;;;4929947;29;20032;-58
2023/05/05 02:39:24;;;;;;;2.50;2.30;;;13.60;77.30;;;;;;4919599;29;20032;-58
2023/05/05 02:41:54;;;;;;;4.03;3.05;;;13.60;77.20;;;;;;4927999;29;20058;-58
2023/05/05 02:44:23;;;;;;;3.75;2.55;;;13.60;77.00;;;;;;4927682;29;20028;-59
2023/05/05 02:46:50;;;;;;;2.78;2.55;;;13.60;77.10;;;;;;4931143;29;20051;-56
2023/05/05 02:49:16;;;;;;;2.60;2.40;;;13.60;77.30;;;;;;4932959;29;20360;-59
2023/05/05 02:51:42;;;;;;;2.97;2.60;;;13.60;77.40;;;;;;4929160;29;20095;-55
2023/05/05 02:54:07;;;;;;;2.50;2.30;;;13.60;77.30;;;;;;4930926;29;20114;-58
2023/05/05 02:56:47;;;;;;;2.60;2.40;;;13.60;77.30;;;;;;4927503;29;20051;-57
2023/05/05 02:59:20;;;;;;;2.80;2.50;;;13.60;78.00;;;;;;4915524;29;20079;-53
2023/05/05 03:01:46;;;;;;;3.55;2.58;;;13.60;77.40;;;;;;4919715;29;20028;-48
2023/05/05 03:04:21;;;;;;;3.55;2.40;;;13.60;77.30;;;;;;4928316;29;20501;-56
2023/05/05 03:06:52;;;;;;;2.63;2.42;;;13.60;77.40;;;;;;4925803;29;20052;-56
2023/05/05 03:09:24;;;;;;;2.50;2.30;;;13.60;77.40;;;;;;4929215;29;20046;-57
2023/05/05 03:12:04;;;;;;;3.08;2.45;;;13.70;77.40;;;;;;4922543;29;20031;-57
2023/05/05 03:14:35;;;;;;;2.80;2.53;;;13.70;77.30;;;;;;4923660;29;20036;-56
2023/05/05 03:17:01;;;;;;;2.53;2.33;;;13.70;77.30;;;;;;4925616;29;20038;-58
2023/05/05 03:19:29;;;;;;;2.78;2.58;;;13.60;77.30;;;;;;4918620;29;20114;-59
2023/05/05 03:21:55;;;;;;;2.65;2.45;;;13.60;77.40;;;;;;4933101;29;20158;-60
2023/05/05 03:24:21;;;;;;;3.53;2.30;;;13.70;77.50;;;;;;4929005;29;20126;-61
2023/05/05 03:26:48;;;;;;;3.22;2.50;;;13.70;77.30;;;;;;4926661;29;20132;-61
2023/05/05 03:29:15;;;;;;;3.53;2.50;;;13.70;77.30;;;;;;4928430;29;20431;-58
2023/05/05 03:31:41;;;;;;;4.10;2.80;;;13.70;77.20;;;;;;4929698;29;20035;-58
2023/05/05 03:34:07;;;;;;;2.80;2.50;;;13.70;77.30;;;;;;4928510;29;20640;-58
2023/05/05 03:36:34;;;;;;;4.30;2.40;;;13.80;77.10;;;;;;4923161;29;20036;-58
2023/05/05 03:39:00;;;;;;;3.20;2.45;;;13.80;77.20;;;;;;4928096;29;20039;-59
2023/05/05 03:41:26;;;;;;;3.17;2.67;;;13.80;77.20;;;;;;4922505;29;20028;-58
2023/05/05 03:43:52;;;;;;;3.33;3.00;;;13.80;77.70;;;;;;4922415;29;20028;-58
2023/05/05 03:46:18;;;;;;;3.72;2.75;;;13.80;77.00;;;;;;4930846;29;20355;-59
2023/05/05 03:48:43;;;;;;;2.67;2.47;;;13.90;77.10;;;;;;4928844;29;20039;-59
2023/05/05 03:51:09;;;;;;;3.03;2.55;;;13.80;77.10;;;;;;4930906;29;20455;-59
2023/05/05 03:53:35;;;;;;;3.17;2.53;;;13.90;76.90;;;;;;4923895;29;20541;-59
2023/05/05 03:56:01;;;;;;;3.03;2.53;;;13.90;77.10;;;;;;4923737;29;20047;-58
2023/05/05 03:58:26;;;;;;;3.03;2.55;;;13.90;76.90;;;;;;4926845;29;20027;-59
2023/05/05 04:00:52;;;;;;;3.08;2.78;;;13.90;76.90;;;;;;4930632;29;20135;-58
2023/05/05 04:03:17;;;;;;;2.63;2.42;;;13.90;76.80;;;;;;4926176;29;20032;-59
2023/05/05 04:05:43;;;;;;;3.65;2.78;;;13.90;76.80;;;;;;4927467;29;20036;-57
2023/05/05 04:08:09;;;;;;;2.75;2.30;;;13.90;76.70;;;;;;4927610;29;20038;-56
2023/05/05 04:10:35;;;;;;;2.88;2.67;;;14.00;76.80;;;;;;4932764;29;20036;-55
2023/05/05 04:13:00;;;;;;;3.10;2.47;;;14.00;76.90;;;;;;4927178;29;20430;-51
2023/05/05 04:15:26;;;;;;;2.63;2.42;;;14.00;76.90;;;;;;4923274;29;20032;-46
2023/05/05 04:17:52;;;;;;;3.13;2.83;;;14.00;76.70;;;;;;4924288;29;20420;-48
2023/05/05 04:20:17;;;;;;;3.28;2.83;;;14.00;76.70;;;;;;4932020;29;20042;-49
2023/05/05 04:22:43;;;;;;;3.10;2.80;;;14.10;76.70;;;;;;4934318;29;20040;-49
2023/05/05 04:25:09;;;;;;;3.28;2.50;;;14.10;76.70;;;;;;4935245;29;20036;-57
2023/05/05 04:27:35;;;;;;;2.97;2.67;;;14.20;76.70;;;;;;4932892;29;20028;-57
2023/05/05 04:30:01;;;;;;;3.90;2.92;;;14.20;76.60;;;;;;4930938;29;20035;-57
2023/05/05 04:32:26;;;;;;;2.83;2.38;;;14.20;76.50;;;;;;4925060;29;20139;-57
2023/05/05 04:34:53;;;;;;;2.85;2.65;;;14.30;76.50;;;;;;4929205;29;20035;-58
2023/05/05 04:37:18;;;;;;;2.70;2.40;;;14.40;76.30;;;;;;4931221;29;20055;-58
2023/05/05 04:39:44;;;;;;;2.40;2.20;;;14.40;76.10;;;;;;4927929;29;20075;-56
2023/05/05 04:42:10;;;;;;;2.38;2.15;;;14.50;76.00;;;;;;4933813;29;20419;-58
2023/05/05 04:44:36;;;;;;;3.08;2.65;;;14.50;75.90;;;;;;4925426;29;20071;-61
2023/05/05 04:47:02;;;;;;;2.88;2.53;;;14.50;75.90;;;;;;4923323;29;20114;-60
2023/05/05 04:49:30;;;;;;;2.55;2.35;;;14.60;75.80;;;;;;4933197;29;20115;-59
2023/05/05 04:51:56;;;;;;;2.80;2.20;;;14.60;75.70;;;;;;4924515;29;20114;-57
2023/05/05 04:54:22;;;;;;;3.50;2.90;;;14.70;75.50;;;;;;4923610;29;20107;-57
2023/05/05 04:56:48;;;;;;;3.72;2.90;;;14.80;75.50;;;;;;4928144;29;20122;-58
2023/05/05 04:59:14;;;;;;;2.85;2.60;;;14.80;75.20;;;;;;4932760;29;20052;-57
2023/05/05 05:01:40;;;;;;;2.75;2.55;;;14.90;75.90;;;;;;4923925;29;20056;-57
2023/05/05 05:04:07;;;;;;;2.58;2.38;;;15.00;75.10;;;;;;4938209;28;20359;-57
2023/05/05 05:06:33;;;;;;;3.42;2.70;;;15.10;74.80;;;;;;4924264;29;20733;-58
2023/05/05 05:08:59;;;;;;;2.88;2.53;;;15.20;74.50;;;;;;4926100;29;20059;-55
2023/05/05 05:11:26;;;;;;;2.97;2.55;;;15.30;74.30;;;;;;4930179;29;20028;-56
2023/05/05 05:13:51;;;;;;;2.70;2.50;;;15.40;74.00;;;;;;4929806;29;20031;-56
2023/05/05 05:16:17;;;;;;;3.28;2.78;;;15.50;73.80;;;;;;4919548;29;20030;-47
2023/05/05 05:18:43;;;;;;;2.90;2.40;;;15.60;73.60;;;;;;4924406;29;20068;-55
2023/05/05 05:21:09;;;;;;;3.08;2.45;;;15.70;73.30;;;;;;4929968;29;20068;-48
2023/05/05 05:23:35;;;;;;;3.53;2.70;;;15.80;72.90;;;;;;4921785;29;20442;-54
2023/05/05 05:26:00;;;;;;;3.63;2.70;;;15.80;72.70;;;;;;4920600;29;20038;-51
2023/05/05 05:28:26;;;;;;;3.65;2.58;;;15.80;72.60;;;;;;4921042;29;20438;-54
2023/05/05 05:30:52;;;;;;;2.63;2.40;;;15.90;72.50;;;;;;4921079;29;20107;-50
2023/05/05 05:33:18;;;;;;;2.85;2.60;;;16.00;72.20;;;;;;4923965;29;20106;-50
2023/05/05 05:35:44;;;;;;;3.25;2.65;;;16.00;72.10;;;;;;4923167;29;20091;-53
2023/05/05 05:38:10;;;;;;;2.80;2.47;;;16.10;71.90;;;;;;4923458;29;20415;-54
2023/05/05 05:40:36;;;;;;;2.83;2.45;;;16.20;71.70;;;;;;4929036;29;20035;-55
2023/05/05 05:43:02;;;;;;;2.58;2.33;;;16.20;71.40;;;;;;4928347;29;20526;-54
2023/05/05 05:45:27;;;;;;;3.33;2.42;;;16.30;71.30;;;;;;4926158;29;20036;-58
2023/05/05 05:47:53;;;;;;;2.85;2.55;;;16.30;71.10;;;;;;4930120;29;20028;-58
2023/05/05 05:50:19;;;;;;;2.65;2.45;;;16.30;71.00;;;;;;4927696;29;20572;-57
2023/05/05 05:52:45;;;;;;;2.30;2.10;;;16.30;70.90;;;;;;4923053;29;20109;-58
2023/05/05 05:55:10;;;;;;;2.97;2.67;;;16.30;70.80;;;;;;4922500;29;20060;-57
2023/05/05 05:57:36;;;;;;;3.00;2.70;;;16.40;71.00;;;;;;4913515;29;20079;-60
2023/05/05 06:00:02;;;;;;;2.53;2.33;;;16.40;70.80;;;;;;4921199;29;20048;-58
2023/05/05 06:02:28;;;;;;;2.58;2.38;;;16.40;70.60;;;;;;4924532;29;20062;-57
2023/05/05 06:04:54;;;;;;;3.25;2.50;;;16.40;70.50;;;;;;4923210;29;20115;-58
2023/05/05 06:07:19;;;;;;;3.42;2.72;;;16.50;70.50;;;;;;4924374;29;20139;-57
2023/05/05 06:09:45;;;;;;;3.25;2.55;;;16.50;70.50;;;;;;4923603;29;20432;-57
2023/05/05 06:12:11;;;;;;;2.90;2.40;;;16.60;70.50;;;;;;4921351;29;20087;-59
2023/05/05 06:14:36;;;;;;;4.03;2.60;;;16.60;70.10;;;;;;4921245;29;20039;-55
2023/05/05 06:17:02;;;;;;;3.47;2.50;;;16.70;70.30;;;;;;4924022;29;20058;-56
2023/05/05 06:19:28;;;;;;;2.50;2.30;;;16.70;70.10;;;;;;4918911;29;20040;-58
2023/05/05 06:21:54;;;;;;;2.75;2.33;;;16.80;70.20;;;;;;4926242;29;20034;-58
2023/05/05 06:24:19;;;;;;;2.15;2.03;;;16.80;69.90;;;;;;4923735;29;20402;-60
2023/05/05 06:26:45;;;;;;;5.45;2.60;;;16.80;69.70;;;;;;4924207;29;20028;-53
2023/05/05 06:29:10;;;;;;;2.60;2.40;;;16.90;69.50;;;;;;4921433;29;20039;-59
2023/05/05 06:31:36;;;;;;;3.17;2.72;;;17.00;69.50;;;;;;4922872;29;20031;-57
2023/05/05 06:34:02;;;;;;;2.30;2.10;;;17.00;69.20;;;;;;4925605;29;20892;-59
2023/05/05 06:36:27;;;;;;;3.15;2.63;;;17.10;69.20;;;;;;4924196;29;20032;-58
2023/05/05 06:38:53;;;;;;;3.42;2.20;;;17.20;69.20;;;;;;4920949;29;20044;-56
2023/05/05 06:41:19;;;;;;;2.88;2.58;;;17.20;69.10;;;;;;4922790;29;20123;-59
2023/05/05 06:43:45;;;;;;;2.80;2.30;;;17.30;68.90;;;;;;4921426;29;20759;-59
2023/05/05 06:46:11;;;;;;;3.63;2.60;;;17.30;68.80;;;;;;4923516;29;20042;-59
2023/05/05 06:48:37;;;;;;;3.55;2.35;;;17.40;69.50;;;;;;4922010;29;20028;-57
2023/05/05 06:51:02;;;;;;;2.78;2.58;;;17.40;68.50;;;;;;4921129;29;20028;-56
2023/05/05 06:53:28;;;;;;;4.03;2.60;;;17.50;68.50;;;;;;4916397;29;20028;-58
2023/05/05 06:55:54;;;;;;;3.30;2.40;;;17.50;68.10;;;;;;4916037;29;20071;-58
2023/05/05 06:58:20;;;;;;;2.45;2.25;;;17.50;68.00;;;;;;4914959;29;20028;-60
2023/05/05 07:00:46;;;;;;;2.75;2.50;;;17.50;67.80;;;;;;4919872;29;20058;-61
2023/05/05 07:03:12;;;;;;;5.70;2.75;;;17.50;67.90;;;;;;4916378;29;20062;-59
2023/05/05 07:05:37;;;;;;;2.67;2.47;;;17.50;67.90;;;;;;4916537;29;20144;-61
2023/05/05 07:08:03;;;;;;;4.05;2.95;;;17.50;68.20;;;;;;4915086;29;20471;-56
2023/05/05 07:10:30;;;;;;;4.00;2.90;;;17.50;68.00;;;;;;4916360;29;20044;-60
2023/05/05 07:12:56;;;;;;;2.85;2.55;;;17.40;67.80;;;;;;4907722;29;20079;-60
2023/05/05 07:15:21;;;;;;;3.47;2.80;;;17.50;67.90;;;;;;4907830;29;20123;-57
2023/05/05 07:17:47;;;;;;;3.95;2.67;;;17.50;67.90;;;;;;4908647;29;20915;-60
2023/05/05 07:20:13;;;;;;;2.70;2.40;;;17.50;67.90;;;;;;4909512;29;20395;-59
2023/05/05 07:22:38;;;;;;;5.60;2.90;;;17.50;67.90;;;;;;4917342;29;20370;-59
2023/05/05 07:25:05;;;;;;;3.03;2.50;;;17.50;67.80;;;;;;4906423;29;20044;-55
2023/05/05 07:27:31;;;;;;;3.88;2.90;;;17.50;67.80;;;;;;4904150;29;20044;-58
2023/05/05 07:29:57;;;;;;;3.03;2.63;;;17.50;68.30;;;;;;4907062;29;20120;-61
2023/05/05 07:32:23;;;;;;;3.10;2.50;;;17.50;67.70;;;;;;4905670;29;20040;-55
2023/05/05 07:34:49;;;;;;;3.22;2.63;;;17.60;67.80;;;;;;4914960;29;20099;-57
2023/05/05 07:37:14;;;;;;;3.58;2.90;;;17.60;67.70;;;;;;4903461;29;20200;-54
2023/05/05 07:39:40;;;;;;;3.05;2.50;;;17.60;67.60;;;;;;4903052;29;20530;-59
2023/05/05 07:42:06;;;;;;;3.10;2.75;;;17.60;67.60;;;;;;4908452;29;20032;-55
2023/05/05 07:44:32;;;;;;;2.83;2.58;;;17.60;67.60;;;;;;4916863;29;20072;-55
2023/05/05 07:46:58;;;;;;;4.57;2.40;;;17.70;68.20;;;;;;4909917;29;20163;-57
2023/05/05 07:49:24;;;;;;;2.75;2.53;;;17.70;67.70;;;;;;4912795;29;20476;-56
2023/05/05 07:51:49;;;;;;;4.32;2.50;;;17.70;67.60;;;;;;4917437;29;20048;-58
2023/05/05 07:54:18;;;;;;;3.42;2.70;;;17.70;67.40;;;;;;4921102;29;20031;-58
2023/05/05 07:56:43;;;;;;;3.13;2.83;;;17.80;67.30;;;;;;4917606;29;20083;-58
2023/05/05 07:59:10;;;;;;;3.08;2.45;;;17.70;67.20;;;;;;4908247;29;20051;-59
2023/05/05 08:01:36;;;;;;;3.55;2.50;;;17.80;67.30;;;;;;4907943;29;20950;-57
2023/05/05 08:04:02;;;;;;;3.75;2.70;;;17.70;67.20;;;;;;4902678;29;20051;-58
2023/05/05 08:06:28;;;;;;;2.95;2.65;;;17.80;67.00;;;;;;4906121;29;23875;-57
2023/05/05 08:08:54;;;;;;;2.88;2.28;;;17.80;67.10;;;;;;4906351;29;20032;-57
2023/05/05 08:11:23;;;;;;;3.60;2.67;;;17.70;66.90;;;;;;4902331;29;20040;-57
2023/05/05 08:13:48;;;;;;;3.22;2.70;;;17.70;67.00;;;;;;4913736;29;20114;-59
2023/05/05 08:16:14;;;;;;;3.28;2.75;;;17.70;67.00;;;;;;4910018;29;20102;-58
2023/05/05 08:18:40;;;;;;;3.15;2.58;;;17.60;67.10;;;;;;4909508;29;20443;-56
2023/05/05 08:21:10;;;;;;;2.92;2.63;;;17.60;67.30;;;;;;4908926;29;21052;-59
2023/05/05 08:23:36;;;;;;;4.05;2.42;;;17.60;67.30;;;;;;4913672;29;20032;-58
2023/05/05 08:26:05;;;;;;;3.38;2.75;;;17.50;67.30;;;;;;4911266;29;20090;-60
2023/05/05 08:28:35;;;;;;;4.15;3.15;;;17.50;68.30;;;;;;4920444;29;20429;-58
2023/05/05 08:31:01;;;;;;;3.33;3.00;;;17.40;67.60;;;;;;4916080;29;20040;-60
2023/05/05 08:33:27;;;;;;;2.60;2.40;;;17.40;67.70;;;;;;4910285;29;20550;-57
2023/05/05 08:35:53;;;;;;;3.67;2.60;;;17.40;67.70;;;;;;4916633;29;20170;-62
2023/05/05 08:38:18;;;;;;;3.38;2.85;;;17.40;67.70;;;;;;4919137;29;20036;-62
2023/05/05 08:40:44;;;;;;;2.90;2.60;;;17.30;67.70;;;;;;4898446;29;20097;-60
2023/05/05 08:43:14;;;;;;;3.47;2.88;;;17.30;67.90;;;;;;4901421;29;20062;-58
2023/05/05 08:45:41;;;;;;;3.25;2.65;;;17.40;68.00;;;;;;4908542;29;20090;-56
2023/05/05 08:48:08;;;;;;;2.90;2.58;;;17.40;68.00;;;;;;4905601;29;21500;-59
2023/05/05 08:50:38;;;;;;;3.08;2.60;;;17.40;67.90;;;;;;4914648;29;20043;-59
2023/05/05 08:53:14;;;;;;;3.38;2.40;;;17.40;67.80;;;;;;4907001;29;20079;-57
2023/05/05 08:55:55;;;;;;;2.70;2.50;;;17.40;67.90;;;;;;4914975;29;20056;-60
2023/05/05 08:58:24;;;;;;;3.00;2.72;;;17.40;68.00;;;;;;4913202;29;20032;-61
2023/05/05 09:00:51;;;;;;;3.30;2.53;;;17.40;68.00;;;;;;4917991;29;20083;-59
2023/05/05 09:03:17;;;;;;;2.85;2.45;;;17.50;68.10;;;;;;4913546;29;20119;-61
2023/05/05 09:05:43;;;;;;;2.97;2.63;;;17.50;67.90;;;;;;4902837;29;20040;-57
2023/05/05 09:08:12;;;;;;;3.50;2.80;;;17.50;67.80;;;;;;4903723;29;22646;-55
2023/05/05 09:10:41;;;;;;;3.83;3.00;;;17.50;67.70;;;;;;4906252;29;20031;-56
2023/05/05 09:13:07;;;;;;;3.03;2.63;;;17.60;67.80;;;;;;4913350;29;20463;-57
2023/05/05 09:15:33;;;;;;;3.90;2.90;;;17.60;67.90;;;;;;4905830;29;20035;-59
2023/05/05 09:18:00;;;;;;;3.35;2.60;;;17.70;68.30;;;;;;4902700;29;20039;-60
2023/05/05 09:20:34;;;;;;;3.35;2.60;;;17.70;68.30;;;;;;4913702;29;20123;-58
2023/05/05 09:23:12;;;;;;;3.50;2.67;;;17.70;68.30;;;;;;4916393;29;20521;-57
2023/05/05 09:25:39;;;;;;;3.80;2.95;;;17.80;68.20;;;;;;4917364;29;20039;-59
2023/05/05 09:28:13;;;;;;;3.28;2.97;;;17.80;68.20;;;;;;4915063;29;20032;-58
2023/05/05 09:30:40;;;;;;;3.08;2.78;;;17.80;68.30;;;;;;4903573;29;20047;-60
2023/05/05 09:33:06;;;;;;;4.45;3.20;;;17.80;68.30;;;;;;4912207;29;20040;-58
2023/05/05 09:35:52;;;;;;;3.10;2.58;;;17.80;68.30;;;;;;4913517;29;20072;-55
2023/05/05 09:38:19;;;;;;;3.13;2.78;;;17.90;68.30;;;;;;4916668;29;20035;-62
2023/05/05 09:40:49;;;;;;;2.78;2.58;;;17.90;68.30;;;;;;4902173;29;20103;-58
2023/05/05 09:43:16;;;;;;;3.28;2.80;;;17.90;68.20;;;;;;4917943;29;20662;-60
2023/05/05 09:45:42;;;;;;;3.05;2.75;;;17.90;68.30;;;;;;4905180;29;20036;-58
2023/05/05 09:48:30;;;;;;;4.10;3.00;;;18.00;68.30;;;;;;4917606;29;20553;-60
2023/05/05 09:50:57;;;;;;;4.55;3.05;;;18.00;68.10;;;;;;4916094;29;20039;-60
2023/05/05 09:53:23;;;;;;;3.13;2.83;;;18.10;68.10;;;;;;4912071;29;20141;-58
2023/05/05 09:55:57;;;;;;;2.97;2.67;;;18.10;68.00;;;;;;4905249;29;20056;-57
2023/05/05 09:58:25;;;;;;;3.28;2.70;;;18.10;67.90;;;;;;4905033;29;20111;-59
2023/05/05 10:00:52;;;;;;;3.35;2.80;;;18.20;68.10;;;;;;4915993;29;20494;-59
2023/05/05 10:03:18;;;;;;;3.00;2.70;;;18.10;67.70;;;;;;4912085;29;20047;-59
2023/05/05 10:05:47;;;;;;;3.58;2.63;;;18.20;67.70;;;;;;4916167;29;20059;-59
2023/05/05 10:08:13;;;;;;;3.08;2.60;;;18.20;67.50;;;;;;4918529;29;20075;-59
2023/05/05 10:10:52;;;;;;;2.58;2.38;;;18.20;67.50;;;;;;4916516;29;20768;-59
2023/05/05 10:13:22;;;;;;;3.08;2.78;;;18.20;67.20;;;;;;4912235;29;20047;-57
2023/05/05 10:15:50;;;;;;;2.85;2.50;;;18.20;67.30;;;;;;4906166;29;20513;-59
2023/05/05 10:18:23;;;;;;;3.28;2.70;;;18.20;67.10;;;;;;4916558;29;20083;-58
2023/05/05 10:20:58;;;;;;;3.42;2.83;;;18.10;67.10;;;;;;4909093;29;20047;-60
2023/05/05 10:23:33;;;;;;;3.30;2.45;;;18.10;67.00;;;;;;4907840;29;20486;-57
2023/05/05 10:26:05;;;;;;;3.03;2.67;;;18.10;67.10;;;;;;4911731;29;20023;-58
2023/05/05 10:28:34;;;;;;;3.38;2.95;;;18.00;67.70;;;;;;4903625;29;20621;-57
2023/05/05 10:31:01;;;;;;;3.17;2.60;;;18.00;67.20;;;;;;4907861;29;20039;-55
2023/05/05 10:33:50;;;;;;;3.25;2.88;;;18.00;67.30;;;;;;4908363;29;20024;-61
2023/05/05 10:36:18;;;;;;;2.85;2.63;;;17.90;67.10;;;;;;4911987;29;20070;-56
2023/05/05 10:38:45;;;;;;;4.28;3.00;;;17.90;67.00;;;;;;4909136;29;20032;-60
2023/05/05 10:41:12;;;;;;;3.42;2.72;;;17.90;67.40;;;;;;4905325;29;20458;-59
2023/05/05 10:43:39;;;;;;;3.33;2.95;;;17.80;67.30;;;;;;4907236;29;20032;-57
2023/05/05 10:46:05;;;;;;;3.80;2.90;;;17.80;67.30;;;;;;4915088;29;20105;-58
2023/05/05 10:48:45;;;;;;;3.20;2.90;;;17.80;67.30;;;;;;4911436;29;20031;-60
2023/05/05 10:51:40;;;;;;;2.90;2.70;;;17.80;67.20;;;;;;4900326;29;20051;-58
2023/05/05 10:54:18;;;;;;;3.85;2.97;;;17.80;67.60;;;;;;4895793;29;20043;-60
2023/05/05 10:56:44;;;;;;;3.88;2.90;;;17.80;67.70;;;;;;4903252;29;20043;-58
2023/05/05 10:59:35;;;;;;;2.97;2.67;;;17.80;67.40;;;;;;4905584;29;20895;-54
2023/05/05 11:02:20;;;;;;;3.50;2.67;;;17.80;67.30;;;;;;4899502;29;21895;-59
2023/05/05 11:05:13;;;;;;;3.80;2.90;;;17.80;67.40;;;;;;4907139;29;20031;-58
2023/05/05 11:07:39;;;;;;;3.40;2.60;;;17.80;67.40;;;;;;4899830;29;20114;-58
2023/05/05 11:10:06;;;;;;;2.90;2.60;;;17.70;67.30;;;;;;4904547;29;20450;-58
2023/05/05 11:12:52;;;;;;;3.78;2.90;;;17.70;67.30;;;;;;4903653;29;20040;-58
2023/05/05 11:15:30;;;;;;;2.83;2.63;;;17.70;67.30;;;;;;4909000;29;20032;-61
2023/05/05 11:17:57;;;;;;;2.88;2.50;;;17.70;67.00;;;;;;4911228;29;20047;-58
2023/05/05 11:20:42;;;;;;;3.20;2.90;;;17.70;66.90;;;;;;4910421;29;20051;-60
2023/05/05 11:23:08;;;;;;;3.00;2.70;;;17.70;66.90;;;;;;4906896;29;20043;-60
2023/05/05 11:25:33;;;;;;;2.78;2.58;;;17.70;66.90;;;;;;4902380;29;20630;-61
2023/05/05 11:28:07;;;;;;;2.80;2.60;;;17.70;66.80;;;;;;4899865;29;20106;-57
2023/05/05 11:30:33;;;;;;;3.67;2.60;;;17.70;66.90;;;;;;4897568;29;20590;-58
2023/05/05 11:33:30;;;;;;;2.55;2.35;;;17.70;66.90;;;;;;4914279;29;20039;-59
2023/05/05 11:36:00;;;;;;;2.80;2.35;;;17.70;67.10;;;;;;4910120;29;20414;-60
2023/05/05 11:38:37;;;;;;;2.50;2.30;;;17.70;66.90;;;;;;4907247;29;20040;-59
2023/05/05 11:41:09;;;;;;;3.10;2.70;;;17.70;66.80;;;;;;4911296;29;20126;-58
2023/05/05 11:43:35;;;;;;;3.38;2.60;;;17.70;66.80;;;;;;4913112;29;20040;-57
2023/05/05 11:46:14;;;;;;;3.83;2.55;;;17.70;66.60;;;;;;4914106;29;20047;-59
2023/05/05 11:48:48;;;;;;;3.67;2.60;;;17.70;66.50;;;;;;4912914;29;20036;-60
2023/05/05 11:51:15;;;;;;;2.97;2.72;;;17.70;66.50;;;;;;4911515;29;20032;-60
2023/05/05 11:53:46;;;;;;;2.78;2.58;;;17.70;66.40;;;;;;4911666;29;20632;-55
2023/05/05 11:56:20;;;;;;;;;;;17.70;66.30;;;;;;4897792;29;20486;-59
2023/05/05 11:58:47;;;;;;;2.40;2.20;;;17.70;66.10;;;;;;4906438;29;20558;-58
2023/05/05 12:01:13;;;;;;;2.67;2.40;;;17.70;66.20;;;;;;4903158;29;20213;-59
2023/05/05 12:03:39;;;;;;;3.80;2.75;;;17.70;66.30;;;;;;4903655;29;20032;-58
2023/05/05 12:06:06;;;;;;;3.00;2.70;;;17.70;66.20;;;;;;4904761;29;20506;-60
2023/05/05 12:08:39;;;;;;;2.70;2.50;;;17.70;66.20;;;;;;4909337;29;20054;-62
2023/05/05 12:11:09;;;;;;;3.63;2.72;;;17.70;66.40;;;;;;4913723;29;20031;-59
2023/05/05 12:13:35;;;;;;;3.05;2.50;;;17.80;66.50;;;;;;4918245;29;20113;-61
2023/05/05 12:16:18;;;;;;;2.80;2.60;;;17.80;66.60;;;;;;4912075;29;20036;-59
2023/05/05 12:18:43;;;;;;;2.78;2.50;;;17.80;66.60;;;;;;4919762;29;20064;-60
2023/05/05 12:21:20;;;;;;;2.97;2.67;;;17.80;66.60;;;;;;4913534;29;20054;-60
2023/05/05 12:23:46;;;;;;;4.05;2.90;;;17.80;66.40;;;;;;4912422;29;20091;-59
2023/05/05 12:26:30;;;;;;;3.97;3.00;;;17.80;66.10;;;;;;4910409;29;20170;-57
2023/05/05 12:28:59;;;;;;;3.97;2.95;;;17.80;66.60;;;;;;4914037;29;20043;-59
2023/05/05 12:31:39;;;;;;;3.17;2.80;;;17.80;66.60;;;;;;4913884;29;20063;-60
2023/05/05 12:34:06;;;;;;;3.10;2.78;;;17.80;66.50;;;;;;4908967;29;20411;-59
2023/05/05 12:36:32;;;;;;;5.07;2.92;;;17.80;66.60;;;;;;4913642;29;20878;-55
2023/05/05 12:38:58;;;;;;;3.15;2.83;;;17.80;66.60;;;;;;4908547;29;20044;-59
2023/05/05 12:41:24;;;;;;;3.35;2.80;;;17.90;66.60;;;;;;4910647;29;20187;-60
2023/05/05 12:43:57;;;;;;;4.10;3.00;;;17.90;66.50;;;;;;4913309;29;20028;-59
2023/05/05 12:46:23;;;;;;;4.40;2.90;;;17.90;66.40;;;;;;4907101;29;20036;-59
2023/05/05 12:49:04;;;;;;;4.00;2.80;;;17.80;66.40;;;;;;4917063;29;20562;-59
2023/05/05 12:51:31;;;;;;;4.13;2.90;;;17.90;66.40;;;;;;4913134;29;20305;-59
2023/05/05 12:54:06;;;;;;;2.80;2.50;;;17.80;66.30;;;;;;4902267;29;20050;-58
2023/05/05 12:56:42;;;;;;;3.25;2.95;;;17.90;66.30;;;;;;4911507;29;20140;-57